Time;durP1;ratioP1;P1;durP2;ratioP2;P2;SDS_P1;SDS_P2;PMS_P1;PMS_P2;Temp;Humidity;BMP_temperature;BMP_pressure;BME280_temperature;BME280_humidity;BME280_pressure;Samples;Min_cycle;Max_cycle;Signal;HPM_P1;HPM_P2
2023/10/01 00:00:52;;;;;;;18.63;8.52;;;19.00;91.00;;;;;;7380450;19;20034;-76
2023/10/01 00:03:20;;;;;;;22.83;9.02;;;18.90;91.10;;;;;;7400067;19;20010;-76
2023/10/01 00:05:52;;;;;;;22.73;9.27;;;18.80;91.20;;;;;;7381145;19;20285;-78
2023/10/01 00:08:21;;;;;;;19.80;8.77;;;18.80;91.30;;;;;;7382283;19;20014;-78
2023/10/01 00:10:52;;;;;;;19.75;9.02;;;18.80;91.20;;;;;;7383546;19;20335;-78
2023/10/01 00:13:21;;;;;;;21.48;8.63;;;18.80;91.10;;;;;;7383517;19;20264;-77
2023/10/01 00:15:51;;;;;;;20.23;8.88;;;18.80;91.10;;;;;;7382493;19;20014;-77
2023/10/01 00:18:24;;;;;;;21.83;9.32;;;18.70;91.10;;;;;;7402182;19;20003;-77
2023/10/01 00:20:56;;;;;;;19.88;8.73;;;18.70;91.00;;;;;;7382177;19;20038;-77
2023/10/01 00:23:25;;;;;;;24.23;9.05;;;18.70;91.10;;;;;;7382291;19;20023;-78
2023/10/01 00:25:57;;;;;;;18.55;8.93;;;18.70;91.10;;;;;;7382963;19;20007;-77
2023/10/01 00:28:25;;;;;;;18.35;8.27;;;18.70;91.10;;;;;;7382861;19;20003;-77
2023/10/01 00:30:54;;;;;;;19.13;8.18;;;18.70;91.10;;;;;;7382389;19;20015;-79
2023/10/01 00:33:23;;;;;;;22.75;9.27;;;18.70;91.10;;;;;;7404246;19;20027;-78
2023/10/01 00:35:51;;;;;;;19.95;8.90;;;18.70;91.10;;;;;;7383887;19;20015;-78
2023/10/01 00:38:23;;;;;;;19.98;7.97;;;18.70;91.00;;;;;;7381808;19;20437;-78
2023/10/01 00:40:51;;;;;;;;;;;18.70;91.00;;;;;;7385204;19;20006;-77
2023/10/01 00:43:27;;;;;;;26.65;8.82;;;18.70;90.90;;;;;;7382658;19;19915;-77
2023/10/01 00:45:56;;;;;;;22.67;8.50;;;18.70;90.80;;;;;;7382121;19;20006;-77
2023/10/01 00:48:27;;;;;;;25.15;8.77;;;18.70;90.80;;;;;;7402697;19;20087;-77
2023/10/01 00:50:57;;;;;;;18.73;8.57;;;18.70;91.00;;;;;;7380200;19;20017;-76
2023/10/01 00:53:28;;;;;;;27.45;8.27;;;18.70;91.00;;;;;;7379918;19;20016;-77
2023/10/01 00:55:57;;;;;;;21.75;8.20;;;18.60;90.90;;;;;;7379536;19;20014;-77
2023/10/01 00:58:26;;;;;;;18.75;8.05;;;18.60;90.80;;;;;;7380728;19;20228;-77
2023/10/01 01:00:55;;;;;;;22.27;9.13;;;18.60;90.80;;;;;;7378579;19;20301;-77
2023/10/01 01:03:26;;;;;;;17.90;8.38;;;18.60;90.70;;;;;;7400837;19;20003;-77
2023/10/01 01:06:12;;;;;;;27.05;8.57;;;18.60;90.70;;;;;;7380710;19;20017;-77
2023/10/01 01:08:54;;;;;;;18.63;8.60;;;18.60;90.70;;;;;;7379752;19;20009;-77
2023/10/01 01:11:23;;;;;;;16.65;8.43;;;18.60;90.70;;;;;;7379174;19;20030;-77
2023/10/01 01:13:52;;;;;;;16.95;8.50;;;18.50;90.70;;;;;;7379023;19;20111;-76
2023/10/01 01:16:22;;;;;;;23.73;9.07;;;18.50;90.80;;;;;;7380464;19;20078;-77
2023/10/01 01:18:51;;;;;;;23.42;9.13;;;18.50;90.80;;;;;;7380215;19;20003;-77
2023/10/01 01:21:20;;;;;;;20.02;8.63;;;18.50;90.90;;;;;;7400090;19;20353;-77
2023/10/01 01:23:53;;;;;;;23.10;9.23;;;18.40;90.80;;;;;;7379034;19;20006;-77
2023/10/01 01:26:23;;;;;;;21.90;8.43;;;18.40;90.80;;;;;;7379890;19;20086;-77
2023/10/01 01:28:52;;;;;;;18.20;8.25;;;18.40;90.80;;;;;;7379665;19;20393;-77
2023/10/01 01:31:27;;;;;;;23.45;8.48;;;18.40;90.70;;;;;;7380377;19;20435;-77
2023/10/01 01:33:56;;;;;;;14.02;7.40;;;18.40;91.00;;;;;;7379711;19;20018;-77
2023/10/01 01:36:30;;;;;;;22.85;7.88;;;18.40;90.70;;;;;;7399556;19;20199;-77
2023/10/01 01:39:26;;;;;;;17.73;8.90;;;18.30;90.80;;;;;;7378832;19;20062;-78
2023/10/01 01:41:55;;;;;;;18.27;8.35;;;18.40;90.80;;;;;;7378617;19;20014;-77
2023/10/01 01:44:24;;;;;;;18.40;8.32;;;18.40;90.80;;;;;;7379026;19;20026;-78
2023/10/01 01:47:00;;;;;;;21.85;8.30;;;18.30;90.70;;;;;;7379441;19;20007;-77
2023/10/01 01:49:29;;;;;;;19.65;8.70;;;18.30;90.80;;;;;;7379974;19;20250;-78
2023/10/01 01:52:03;;;;;;;19.00;8.70;;;18.30;90.80;;;;;;7379589;19;20058;-77
2023/10/01 01:54:39;;;;;;;18.52;8.48;;;18.30;90.70;;;;;;7380143;19;20011;-78
2023/10/01 01:57:13;;;;;;;20.35;8.48;;;18.30;90.80;;;;;;7399816;19;20003;-77
2023/10/01 01:59:43;;;;;;;21.10;8.77;;;18.30;90.70;;;;;;7378213;19;20373;-77
2023/10/01 02:02:13;;;;;;;28.27;8.45;;;18.20;90.70;;;;;;7377965;19;20014;-77
2023/10/01 02:04:58;;;;;;;21.00;8.77;;;18.30;90.70;;;;;;7377489;19;20058;-76
2023/10/01 02:07:28;;;;;;;19.50;8.95;;;18.30;90.60;;;;;;7378427;19;20014;-76
2023/10/01 02:09:59;;;;;;;22.45;8.65;;;18.30;90.60;;;;;;7378225;19;20426;-77
2023/10/01 02:12:30;;;;;;;19.20;8.48;;;18.30;90.50;;;;;;7383038;19;20015;-76
2023/10/01 02:15:02;;;;;;;23.33;8.98;;;18.20;90.50;;;;;;7409538;19;20011;-76
2023/10/01 02:17:31;;;;;;;27.02;8.75;;;18.20;90.50;;;;;;7384195;19;20007;-76
2023/10/01 02:20:01;;;;;;;23.50;8.52;;;18.20;90.60;;;;;;7379493;19;20280;-76
2023/10/01 02:22:31;;;;;;;21.30;8.60;;;18.20;90.60;;;;;;7377871;19;20743;-77
2023/10/01 02:25:04;;;;;;;16.17;8.00;;;18.20;90.60;;;;;;7378711;19;20346;-76
2023/10/01 02:27:42;;;;;;;17.00;8.18;;;18.20;90.50;;;;;;7378583;19;20270;-77
2023/10/01 02:30:16;;;;;;;18.67;7.82;;;18.20;90.60;;;;;;7399976;19;20006;-77
2023/10/01 02:33:15;;;;;;;22.45;8.40;;;18.20;90.50;;;;;;7376806;19;20013;-77
2023/10/01 02:35:43;;;;;;;18.70;7.72;;;18.20;90.50;;;;;;7383896;19;20254;-77
2023/10/01 02:40:58;;;;;;;17.52;7.65;;;18.20;90.50;;;;;;7383713;19;19939;-77
2023/10/01 02:43:26;;;;;;;22.17;8.55;;;18.10;90.50;;;;;;7383513;19;19998;-77
2023/10/01 02:45:55;;;;;;;21.65;8.35;;;18.10;90.60;;;;;;7383309;19;20003;-77
2023/10/01 02:48:22;;;;;;;18.02;7.75;;;18.10;90.50;;;;;;7407135;19;20010;-78
2023/10/01 02:50:54;;;;;;;18.53;8.03;;;18.00;90.60;;;;;;7384412;19;20018;-77
2023/10/01 02:53:22;;;;;;;18.23;8.43;;;18.00;90.70;;;;;;7384488;19;20010;-77
2023/10/01 02:55:51;;;;;;;21.90;6.75;;;18.00;90.70;;;;;;7383379;19;20295;-77
2023/10/01 02:58:26;;;;;;;24.02;8.77;;;18.00;90.70;;;;;;7385113;19;20009;-77
2023/10/01 03:00:55;;;;;;;23.23;8.52;;;17.90;90.60;;;;;;7384383;19;20553;-77
2023/10/01 03:03:31;;;;;;;19.30;7.90;;;18.00;90.60;;;;;;7405689;19;20232;-77
2023/10/01 03:06:08;;;;;;;19.55;8.85;;;17.90;90.60;;;;;;7387897;19;20022;-77
2023/10/01 03:11:22;;;;;;;19.42;8.65;;;17.90;90.50;;;;;;7383312;19;20014;-77
2023/10/01 03:13:54;;;;;;;14.85;7.45;;;17.90;90.50;;;;;;7384409;19;20014;-76
2023/10/01 03:16:43;;;;;;;22.83;7.70;;;17.90;90.60;;;;;;7383525;19;19998;-76
2023/10/01 03:19:18;;;;;;;18.23;7.38;;;17.90;90.70;;;;;;7383899;19;20046;-76
2023/10/01 03:24:42;;;;;;;25.40;8.77;;;17.90;90.50;;;;;;7380517;19;20006;-77
2023/10/01 03:27:20;;;;;;;15.82;7.78;;;17.90;90.50;;;;;;7404904;19;20014;-77
2023/10/01 03:30:00;;;;;;;18.05;8.05;;;17.90;90.60;;;;;;7382559;19;19999;-77
2023/10/01 03:32:32;;;;;;;17.60;8.23;;;17.90;90.50;;;;;;7382814;19;20084;-77
2023/10/01 03:35:04;;;;;;;20.38;7.75;;;17.90;90.50;;;;;;7383192;19;19999;-77
2023/10/01 03:37:38;;;;;;;21.55;8.75;;;17.90;90.50;;;;;;7382377;19;20006;-77
2023/10/01 03:40:18;;;;;;;16.92;7.90;;;17.90;90.40;;;;;;7381688;19;20424;-77
2023/10/01 03:42:51;;;;;;;16.15;7.47;;;17.90;90.40;;;;;;7383458;19;20044;-77
2023/10/01 03:48:06;;;;;;;19.30;8.57;;;17.80;90.30;;;;;;7381875;19;20369;-77
2023/10/01 03:50:45;;;;;;;15.00;7.50;;;17.80;90.30;;;;;;7382004;19;20007;-77
2023/10/01 03:53:18;;;;;;;18.27;8.30;;;17.80;90.30;;;;;;7383900;19;20066;-78
2023/10/01 03:56:07;;;;;;;18.30;7.40;;;17.80;90.40;;;;;;7381977;19;20015;-77
2023/10/01 03:58:36;;;;;;;22.67;7.38;;;17.70;90.40;;;;;;7382312;19;20128;-78
2023/10/01 04:01:25;;;;;;;21.30;7.82;;;17.80;90.30;;;;;;7382503;19;20394;-77
2023/10/01 04:04:06;;;;;;;;;;;;;;;;;;;;;
2023/10/01 04:06:45;;;;;;;;;;;;;;;;;;;;;
2023/10/01 04:09:19;;;;;;;17.92;7.82;;;17.70;90.40;;;;;;7402215;19;20038;-78
2023/10/01 04:12:02;;;;;;;20.02;7.30;;;17.70;90.30;;;;;;7380081;19;20003;-78
2023/10/01 04:15:00;;;;;;;;;;;;;;;;;;;;;
2023/10/01 04:17:37;;;;;;;15.98;8.25;;;17.60;90.40;;;;;;7381488;19;20014;-78
2023/10/01 04:20:19;;;;;;;17.95;8.18;;;17.60;90.40;;;;;;7383371;19;20002;-78
2023/10/01 04:22:51;;;;;;;21.88;8.00;;;17.60;90.30;;;;;;7383824;19;20014;-79
2023/10/01 04:25:25;;;;;;;17.98;8.35;;;17.60;90.30;;;;;;7383517;19;20080;-77
2023/10/01 04:27:54;;;;;;;20.75;8.40;;;17.60;90.30;;;;;;7385518;19;20034;-78
2023/10/01 04:30:35;;;;;;;;;;;;;;;;;;;;;
2023/10/01 04:33:23;;;;;;;20.63;7.80;;;17.60;90.40;;;;;;7384170;19;20693;-79
2023/10/01 04:36:05;;;;;;;;;;;;;;;;;;;;;
2023/10/01 04:38:37;;;;;;;19.98;8.05;;;17.60;90.30;;;;;;7383879;19;20006;-78
2023/10/01 04:41:07;;;;;;;28.45;8.23;;;17.50;90.30;;;;;;7380459;19;20075;-77
2023/10/01 04:43:42;;;;;;;22.55;8.18;;;17.50;90.50;;;;;;7382441;19;20294;-77
2023/10/01 04:46:12;;;;;;;23.90;8.57;;;17.50;90.60;;;;;;7383389;19;20007;-77
2023/10/01 04:48:56;;;;;;;24.77;8.40;;;17.50;90.60;;;;;;7380993;19;20099;-77
2023/10/01 04:51:44;;;;;;;23.75;8.38;;;17.50;90.60;;;;;;7401577;19;20006;-77
2023/10/01 04:54:17;;;;;;;22.15;8.23;;;17.50;90.70;;;;;;7382251;19;20247;-77
2023/10/01 04:56:57;;;;;;;;;;;;;;;;;;;;;
2023/10/01 04:59:27;;;;;;;35.45;8.57;;;17.50;90.90;;;;;;7378222;19;20011;-77
2023/10/01 05:01:56;;;;;;;17.73;7.82;;;17.50;90.90;;;;;;7379840;19;20015;-77
2023/10/01 05:04:38;;;;;;;;;;;;;;;;;;;;;
2023/10/01 05:07:15;;;;;;;17.38;7.75;;;17.50;90.60;;;;;;7380868;19;20003;-78
2023/10/01 05:09:47;;;;;;;17.05;7.72;;;17.40;90.50;;;;;;7382813;19;20078;-77
2023/10/01 05:12:17;;;;;;;13.02;7.25;;;17.40;90.60;;;;;;7402228;19;20006;-77
2023/10/01 05:15:09;;;;;;;20.02;7.53;;;17.40;90.60;;;;;;7381851;19;20083;-77
2023/10/01 05:17:43;;;;;;;17.95;8.00;;;17.40;90.70;;;;;;7378553;19;20018;-77
2023/10/01 05:20:17;;;;;;;22.43;8.23;;;17.30;90.60;;;;;;7378324;19;20002;-78
2023/10/01 05:22:54;;;;;;;23.70;8.50;;;17.30;90.60;;;;;;7401314;19;19999;-78
2023/10/01 05:25:31;;;;;;;19.60;7.13;;;17.30;90.60;;;;;;7380039;19;20002;-78
2023/10/01 05:28:31;;;;;;;15.73;8.10;;;17.30;90.60;;;;;;7380390;19;20002;-78
2023/10/01 05:31:16;;;;;;;16.02;7.53;;;17.30;90.60;;;;;;7379025;19;20010;-78
2023/10/01 05:33:52;;;;;;;21.02;7.50;;;17.30;90.60;;;;;;7379618;19;20015;-78
2023/10/01 05:36:24;;;;;;;25.33;8.15;;;17.30;90.50;;;;;;7399621;19;20031;-78
2023/10/01 05:38:55;;;;;;;19.13;8.25;;;17.30;90.50;;;;;;7376712;19;20225;-77
2023/10/01 05:41:29;;;;;;;;;;;17.30;90.60;;;;;;7379456;19;20024;-77
2023/10/01 05:44:01;;;;;;;18.40;7.93;;;17.30;90.70;;;;;;7379564;19;19911;-78
2023/10/01 05:46:31;;;;;;;26.48;8.27;;;17.30;90.60;;;;;;7378953;19;20752;-78
2023/10/01 05:49:00;;;;;;;19.48;8.20;;;17.30;90.70;;;;;;7379254;19;20442;-78
2023/10/01 05:51:45;;;;;;;21.88;8.10;;;17.30;90.70;;;;;;7376590;19;20287;-78
2023/10/01 05:54:18;;;;;;;41.90;20.10;;;17.30;90.70;;;;;;7400156;19;20074;-78
2023/10/01 05:57:11;;;;;;;20.52;10.38;;;17.30;90.60;;;;;;7377683;19;20353;-77
2023/10/01 05:59:56;;;;;;;16.88;7.45;;;17.20;90.90;;;;;;7376290;19;20113;-77
2023/10/01 06:05:25;;;;;;;16.85;7.68;;;17.30;90.50;;;;;;7373855;19;20242;-78
2023/10/01 06:08:12;;;;;;;16.20;7.07;;;17.20;90.50;;;;;;7376901;19;20013;-79
2023/10/01 06:11:09;;;;;;;15.43;6.88;;;17.20;90.50;;;;;;7382666;19;20003;-79
2023/10/01 06:13:39;;;;;;;15.63;6.93;;;17.20;90.50;;;;;;7381071;19;20003;-76
2023/10/01 06:16:15;;;;;;;15.57;7.47;;;17.20;90.40;;;;;;7381466;19;20010;-78
2023/10/01 06:18:52;;;;;;;14.68;6.70;;;17.20;90.50;;;;;;7380005;19;20391;-78
2023/10/01 06:21:36;;;;;;;;;;;;;;;;;;;;;
2023/10/01 06:24:10;;;;;;;15.50;7.38;;;17.30;90.50;;;;;;7381594;19;20868;-78
2023/10/01 06:27:01;;;;;;;24.48;7.75;;;17.30;90.50;;;;;;7384177;19;20024;-78
2023/10/01 06:29:33;;;;;;;;;;;17.30;90.50;;;;;;7386108;19;20006;-77
2023/10/01 06:32:10;;;;;;;18.42;7.43;;;17.40;90.70;;;;;;7381785;19;19921;-78
2023/10/01 06:34:46;;;;;;;20.10;7.43;;;17.40;90.60;;;;;;7380597;19;20056;-78
2023/10/01 06:37:20;;;;;;;19.27;7.22;;;17.40;90.60;;;;;;7378806;19;20013;-78
2023/10/01 06:39:51;;;;;;;20.67;8.80;;;17.40;90.50;;;;;;7382100;19;20027;-78
2023/10/01 06:42:31;;;;;;;;;;;;;;;;;;;;;
2023/10/01 06:45:10;;;;;;;;;;;;;;;;;;;;;
2023/10/01 06:48:08;;;;;;;18.95;7.90;;;17.50;90.80;;;;;;7393645;19;20006;-78
2023/10/01 06:50:44;;;;;;;17.20;7.80;;;17.50;90.90;;;;;;7391699;19;20006;-79
2023/10/01 06:53:19;;;;;;;20.63;8.07;;;17.60;91.00;;;;;;7400397;19;20039;-78
2023/10/01 06:55:52;;;;;;;14.82;7.10;;;17.60;91.10;;;;;;7398038;19;20078;-79
2023/10/01 06:58:33;;;;;;;24.08;8.32;;;17.60;91.20;;;;;;7386867;19;20007;-79
2023/10/01 07:01:34;;;;;;;17.67;8.27;;;17.60;91.20;;;;;;7383947;19;20030;-78
2023/10/01 07:04:05;;;;;;;16.30;7.30;;;17.70;91.30;;;;;;7385834;19;20014;-78
2023/10/01 07:06:36;;;;;;;20.10;7.97;;;17.70;91.30;;;;;;7384616;19;20007;-77
2023/10/01 07:09:06;;;;;;;24.40;7.35;;;17.80;91.40;;;;;;7406133;19;20010;-76
2023/10/01 07:11:38;;;;;;;20.30;8.32;;;17.80;91.50;;;;;;7382400;19;20013;-77
2023/10/01 07:14:09;;;;;;;22.05;8.15;;;17.90;91.60;;;;;;7383488;19;20011;-77
2023/10/01 07:16:39;;;;;;;17.48;8.65;;;18.00;91.60;;;;;;7383267;19;20030;-77
2023/10/01 07:19:11;;;;;;;19.73;8.50;;;18.00;91.60;;;;;;7379766;19;20027;-77
2023/10/01 07:21:45;;;;;;;20.42;8.52;;;18.00;91.60;;;;;;7382639;19;20010;-77
2023/10/01 07:24:14;;;;;;;20.23;8.45;;;18.10;91.70;;;;;;7404932;19;20005;-77
2023/10/01 07:26:48;;;;;;;17.23;8.40;;;18.10;91.70;;;;;;7382662;19;20010;-76
2023/10/01 07:29:16;;;;;;;23.55;8.77;;;18.10;91.80;;;;;;7382987;19;20003;-76
2023/10/01 07:31:45;;;;;;;22.30;8.65;;;18.20;91.90;;;;;;7386270;19;20002;-78
2023/10/01 07:34:16;;;;;;;18.88;8.88;;;18.20;92.00;;;;;;7386221;19;20355;-77
2023/10/01 07:36:45;;;;;;;20.13;9.20;;;18.30;92.00;;;;;;7383459;19;20011;-77
2023/10/01 07:39:15;;;;;;;19.98;8.88;;;18.30;92.10;;;;;;7401961;19;20376;-77
2023/10/01 07:41:48;;;;;;;19.90;9.48;;;18.40;92.20;;;;;;7381268;19;20031;-77
2023/10/01 07:44:18;;;;;;;24.98;11.05;;;18.50;92.30;;;;;;7381677;19;20009;-78
2023/10/01 07:46:47;;;;;;;23.98;10.68;;;18.60;92.40;;;;;;7382688;19;20011;-77
2023/10/01 07:49:18;;;;;;;24.92;11.55;;;18.60;92.60;;;;;;7382404;19;20006;-77
2023/10/01 07:51:48;;;;;;;25.83;12.57;;;18.70;92.70;;;;;;7383652;19;20312;-77
2023/10/01 07:54:22;;;;;;;31.63;12.48;;;18.80;92.80;;;;;;7405668;19;20005;-78
2023/10/01 07:56:56;;;;;;;29.95;12.68;;;18.90;92.90;;;;;;7383719;19;19998;-78
2023/10/01 07:59:34;;;;;;;31.15;13.20;;;18.90;92.90;;;;;;7383143;19;20013;-78
2023/10/01 08:02:19;;;;;;;31.63;12.85;;;19.00;92.90;;;;;;7382097;19;20002;-79
2023/10/01 08:04:59;;;;;;;26.40;12.30;;;19.10;93.00;;;;;;7381819;19;20023;-77
2023/10/01 08:10:20;;;;;;;31.55;12.10;;;19.20;93.10;;;;;;7379674;19;20094;-77
2023/10/01 08:15:38;;;;;;;23.90;10.90;;;19.30;93.20;;;;;;7382306;19;20025;-76
2023/10/01 08:18:34;;;;;;;27.17;11.60;;;19.30;93.20;;;;;;7402827;19;20018;-77
2023/10/01 08:21:02;;;;;;;31.17;11.60;;;19.40;93.20;;;;;;7380983;19;20030;-78
2023/10/01 08:23:33;;;;;;;25.92;12.57;;;19.40;93.20;;;;;;7383861;19;20383;-78
2023/10/01 08:26:03;;;;;;;24.37;11.23;;;19.50;93.30;;;;;;7383012;19;20007;-78
2023/10/01 08:28:43;;;;;;;26.75;12.65;;;19.50;93.30;;;;;;7381411;19;20013;-78
2023/10/01 08:34:22;;;;;;;29.25;11.05;;;19.50;93.30;;;;;;7378960;19;20089;-78
2023/10/01 08:36:49;;;;;;;22.95;10.35;;;19.60;93.40;;;;;;7380020;19;20007;-78
2023/10/01 08:39:33;;;;;;;27.08;9.80;;;19.60;93.40;;;;;;7400319;19;20003;-78
2023/10/01 08:42:08;;;;;;;20.85;10.15;;;19.70;93.40;;;;;;7380305;19;20013;-77
2023/10/01 08:44:47;;;;;;;32.83;10.45;;;19.70;93.40;;;;;;7381424;19;20362;-76
2023/10/01 08:47:27;;;;;;;25.10;10.10;;;19.70;93.40;;;;;;7379621;19;20366;-77
2023/10/01 08:50:15;;;;;;;23.38;9.93;;;19.80;93.50;;;;;;7380077;19;20011;-77
2023/10/01 08:52:52;;;;;;;21.40;10.15;;;19.80;93.60;;;;;;7380481;19;20025;-77
2023/10/01 08:55:24;;;;;;;20.17;9.23;;;19.90;93.60;;;;;;7380465;19;20062;-77
2023/10/01 08:57:55;;;;;;;25.58;10.10;;;19.90;93.70;;;;;;7380915;19;20019;-77
2023/10/01 09:00:27;;;;;;;26.70;9.77;;;19.90;93.70;;;;;;7402919;19;20007;-76
2023/10/01 09:03:10;;;;;;;22.25;9.38;;;19.90;93.70;;;;;;7379986;19;20062;-77
2023/10/01 09:32:17;;;;;;;;;;;;;;;;;;;;;
2023/10/01 09:41:27;;;;;;;19.70;7.50;;;20.40;94.10;;;;;;7409186;19;20276;-81
2023/10/01 11:28:22;;;;;;;21.45;8.32;;;22.00;91.60;;;;;;7388610;19;19990;-79
2023/10/01 11:30:57;;;;;;;19.45;8.60;;;22.10;91.20;;;;;;7386478;19;20091;-80
2023/10/01 11:33:32;;;;;;;24.52;9.23;;;22.10;91.50;;;;;;7404257;19;20078;-77
2023/10/01 11:38:58;;;;;;;18.95;8.20;;;22.30;91.30;;;;;;7383948;19;20011;-81
2023/10/01 11:41:38;;;;;;;23.05;9.63;;;22.40;91.30;;;;;;7384979;19;20038;-80
2023/10/01 11:44:25;;;;;;;16.00;8.33;;;22.40;90.80;;;;;;7384895;19;20268;-83
2023/10/01 11:47:31;;;;;;;18.60;8.45;;;22.50;90.40;;;;;;7385545;19;20308;-80
2023/10/01 11:50:09;;;;;;;21.38;8.15;;;22.50;90.30;;;;;;7382985;19;20247;-77
2023/10/01 11:52:42;;;;;;;19.35;8.18;;;22.70;90.30;;;;;;7381747;19;20361;-77
2023/10/01 11:55:19;;;;;;;21.10;9.13;;;22.70;90.00;;;;;;7380368;19;20009;-77
2023/10/01 11:57:54;;;;;;;25.08;10.70;;;22.80;89.70;;;;;;7381950;19;20307;-76
2023/10/01 12:00:52;;;;;;;26.48;10.18;;;22.80;89.70;;;;;;7400729;19;20265;-75
2023/10/01 12:03:21;;;;;;;23.52;8.70;;;22.90;90.10;;;;;;7381302;19;20014;-77
2023/10/01 12:05:51;;;;;;;22.40;9.02;;;23.00;90.20;;;;;;7379542;19;20020;-76
2023/10/01 12:08:34;;;;;;;23.73;9.20;;;23.00;90.00;;;;;;7380243;19;20010;-76
2023/10/01 12:11:26;;;;;;;30.08;12.40;;;23.10;89.90;;;;;;7380021;19;20010;-75
2023/10/01 12:16:39;;;;;;;17.83;8.65;;;23.20;88.00;;;;;;7379440;19;19915;-76
2023/10/01 12:19:22;;;;;;;24.00;9.20;;;23.20;87.20;;;;;;7380186;19;20007;-76
2023/10/01 12:22:05;;;;;;;24.90;9.18;;;23.20;86.70;;;;;;7381657;19;20022;-77
2023/10/01 12:24:39;;;;;;;24.27;9.63;;;23.30;86.40;;;;;;7381102;19;20113;-77
2023/10/01 12:27:37;;;;;;;19.95;9.13;;;23.50;86.20;;;;;;7402029;19;20245;-77
2023/10/01 12:30:01;;;;;;;26.15;9.68;;;23.60;84.90;;;;;;7383490;19;20601;-76
2023/10/01 12:32:41;;;;;;;23.45;9.05;;;23.70;84.30;;;;;;7385386;19;20238;-76
2023/10/01 12:35:27;;;;;;;23.80;9.35;;;23.70;83.70;;;;;;7382354;19;20267;-77
2023/10/01 12:40:43;;;;;;;24.67;8.75;;;23.80;82.60;;;;;;7381240;19;20011;-77
2023/10/01 12:46:08;;;;;;;20.15;8.65;;;24.00;82.80;;;;;;7385438;19;20688;-77
2023/10/01 12:48:57;;;;;;;20.52;9.07;;;24.10;81.30;;;;;;7384090;19;20357;-76
2023/10/01 12:51:32;;;;;;;21.73;9.23;;;24.20;81.10;;;;;;7406963;19;20021;-77
2023/10/01 12:54:06;;;;;;;24.15;9.48;;;24.30;80.80;;;;;;7380689;19;20040;-77
2023/10/01 12:56:48;;;;;;;22.92;8.63;;;24.40;81.60;;;;;;7383302;19;20222;-76
2023/10/01 12:59:21;;;;;;;24.40;9.25;;;24.50;81.30;;;;;;7381400;19;20006;-77
2023/10/01 13:01:54;;;;;;;22.25;8.98;;;24.60;80.30;;;;;;7381258;19;20022;-77
2023/10/01 13:04:25;;;;;;;22.80;8.80;;;24.60;80.00;;;;;;7382054;19;19999;-77
2023/10/01 13:07:01;;;;;;;21.88;9.30;;;24.70;80.20;;;;;;7382688;19;20006;-76
2023/10/01 13:12:24;;;;;;;19.63;8.57;;;25.00;79.80;;;;;;7399019;19;20014;-76
2023/10/01 13:17:43;;;;;;;21.48;8.85;;;25.20;79.50;;;;;;7378993;19;20007;-77
2023/10/01 13:20:22;;;;;;;21.95;8.55;;;25.30;79.20;;;;;;7378723;19;20007;-77
2023/10/01 13:22:52;;;;;;;27.40;9.32;;;25.30;78.50;;;;;;7379023;19;20211;-77
2023/10/01 13:25:23;;;;;;;28.00;9.15;;;25.50;78.70;;;;;;7379002;19;20003;-77
2023/10/01 13:28:01;;;;;;;18.45;7.95;;;25.50;77.80;;;;;;7378276;19;20104;-77
2023/10/01 13:31:03;;;;;;;20.77;8.40;;;25.60;77.90;;;;;;7378202;19;20006;-77
2023/10/01 13:33:23;;;;;;;23.17;9.10;;;25.60;77.40;;;;;;7399656;19;20003;-78
2023/10/01 13:35:52;;;;;;;21.05;9.10;;;25.70;75.50;;;;;;7378703;19;20042;-77
2023/10/01 13:38:56;;;;;;;19.33;8.82;;;25.70;75.50;;;;;;7377800;19;20003;-77
2023/10/01 14:11:39;;;;;;;21.65;8.40;;;26.10;73.50;;;;;;7373578;19;20053;-77
2023/10/01 14:14:16;;;;;;;17.20;8.75;;;26.20;74.10;;;;;;7374423;19;20363;-77
2023/10/01 14:17:12;;;;;;;21.15;8.88;;;26.20;74.70;;;;;;7375151;19;20006;-77
2023/10/01 14:19:41;;;;;;;17.67;9.07;;;26.30;74.70;;;;;;7372792;19;20359;-76
2023/10/01 14:22:18;;;;;;;21.63;8.63;;;26.30;74.00;;;;;;7373682;19;20010;-77
2023/10/01 14:24:47;;;;;;;19.02;7.82;;;26.30;73.50;;;;;;7374089;19;20020;-78
2023/10/01 14:27:26;;;;;;;26.70;10.13;;;26.40;73.60;;;;;;7395982;19;20011;-76
2023/10/01 14:30:24;;;;;;;22.25;8.38;;;26.50;74.00;;;;;;7379144;19;20006;-77
2023/10/01 14:32:58;;;;;;;20.63;8.48;;;26.60;73.20;;;;;;7381101;19;20009;-76
2023/10/01 14:35:37;;;;;;;17.98;8.40;;;26.70;73.50;;;;;;7381171;19;20042;-77
2023/10/01 14:38:07;;;;;;;20.73;8.57;;;26.70;72.40;;;;;;7381131;19;20014;-76
2023/10/01 14:40:36;;;;;;;20.52;8.10;;;26.80;72.40;;;;;;7380404;19;20759;-76
2023/10/01 14:43:06;;;;;;;18.77;8.63;;;26.80;72.70;;;;;;7378627;19;20007;-76
2023/10/01 14:45:44;;;;;;;18.85;8.95;;;26.90;71.80;;;;;;7377712;19;20062;-77
2023/10/01 14:48:12;;;;;;;19.38;7.90;;;26.90;71.60;;;;;;7405288;19;20011;-76
2023/10/01 14:50:44;;;;;;;18.95;8.40;;;26.80;69.90;;;;;;7382844;19;20069;-78
2023/10/01 14:53:18;;;;;;;18.65;8.52;;;26.80;71.00;;;;;;7382992;19;20108;-76
2023/10/01 14:55:47;;;;;;;20.95;7.82;;;26.70;70.70;;;;;;7382484;19;20029;-76
2023/10/01 14:58:20;;;;;;;17.80;7.88;;;26.70;70.80;;;;;;7383707;19;20022;-76
2023/10/01 15:00:56;;;;;;;20.73;8.40;;;26.80;70.50;;;;;;7388529;19;20010;-75
2023/10/01 15:03:33;;;;;;;20.75;8.82;;;26.70;70.00;;;;;;7408796;19;20046;-78
2023/10/01 15:06:07;;;;;;;22.02;8.52;;;26.60;70.00;;;;;;7384778;19;20022;-76
2023/10/01 15:08:37;;;;;;;17.92;7.68;;;26.60;69.70;;;;;;7385267;19;20074;-77
2023/10/01 15:11:14;;;;;;;17.42;8.35;;;26.50;69.60;;;;;;7386299;19;20031;-76
2023/10/01 15:13:43;;;;;;;18.70;8.55;;;26.50;69.30;;;;;;7385948;19;20005;-77
2023/10/01 15:16:16;;;;;;;20.80;9.15;;;26.50;70.50;;;;;;7385742;19;20020;-78
2023/10/01 15:18:46;;;;;;;19.00;8.57;;;26.50;69.90;;;;;;7384151;19;20014;-77
2023/10/01 15:21:23;;;;;;;22.50;8.07;;;26.50;69.90;;;;;;7401876;19;20010;-77
2023/10/01 15:23:59;;;;;;;19.45;8.48;;;26.50;71.00;;;;;;7381582;19;20075;-77
2023/10/01 15:26:29;;;;;;;19.63;8.65;;;26.40;71.20;;;;;;7381838;19;20010;-78
2023/10/01 15:29:00;;;;;;;17.45;8.07;;;26.40;70.80;;;;;;7382415;19;20010;-76
2023/10/01 15:31:35;;;;;;;20.58;9.55;;;26.50;70.80;;;;;;7382711;19;20007;-77
2023/10/01 15:34:07;;;;;;;24.17;9.52;;;26.40;70.40;;;;;;7382883;19;20007;-77
2023/10/01 15:36:46;;;;;;;;;;;26.30;70.40;;;;;;7383890;19;20477;-77
2023/10/01 15:39:36;;;;;;;19.85;8.60;;;26.30;70.20;;;;;;7404293;19;19910;-78
2023/10/01 15:42:12;;;;;;;18.13;8.60;;;26.20;72.10;;;;;;7380677;19;20551;-78
2023/10/01 15:44:49;;;;;;;21.05;8.57;;;26.10;75.30;;;;;;7381657;19;20003;-78
2023/10/01 15:47:32;;;;;;;18.65;8.32;;;26.00;76.80;;;;;;7381874;19;20003;-76
2023/10/01 15:50:05;;;;;;;19.88;8.73;;;26.00;76.80;;;;;;7381490;19;20021;-77
2023/10/01 15:52:49;;;;;;;23.90;8.32;;;25.90;78.20;;;;;;7382886;19;20398;-77
2023/10/01 15:55:21;;;;;;;20.23;8.80;;;25.80;79.90;;;;;;7382172;19;20007;-79
2023/10/01 15:57:54;;;;;;;25.65;8.68;;;25.70;80.70;;;;;;7382651;19;20011;-77
2023/10/01 16:00:32;;;;;;;25.30;8.60;;;25.70;81.70;;;;;;7403473;19;20042;-76
2023/10/01 16:03:06;;;;;;;19.02;7.85;;;25.60;82.70;;;;;;7381363;19;20006;-78
2023/10/01 16:05:39;;;;;;;18.35;8.75;;;25.50;82.30;;;;;;7381821;19;20019;-77
2023/10/01 16:08:17;;;;;;;19.85;8.80;;;25.50;82.50;;;;;;7381536;19;20287;-78
2023/10/01 16:10:47;;;;;;;25.35;8.82;;;25.40;82.80;;;;;;7382007;19;20002;-77
2023/10/01 16:13:17;;;;;;;19.35;8.68;;;25.30;83.10;;;;;;7381148;19;20081;-76
2023/10/01 16:15:48;;;;;;;19.95;8.65;;;25.30;83.50;;;;;;7381863;19;20031;-77
2023/10/01 16:18:20;;;;;;;20.63;8.85;;;25.30;83.50;;;;;;7404042;19;20014;-77
2023/10/01 16:20:51;;;;;;;28.20;9.43;;;25.20;84.00;;;;;;7379607;19;19999;-78
2023/10/01 16:23:26;;;;;;;23.77;8.82;;;25.10;83.90;;;;;;7380888;19;20067;-77
2023/10/01 16:25:55;;;;;;;20.75;9.27;;;25.10;84.10;;;;;;7381275;19;20006;-79
2023/10/01 16:28:26;;;;;;;23.65;9.02;;;25.10;84.40;;;;;;7381627;19;20007;-79
2023/10/01 16:31:04;;;;;;;20.02;8.35;;;25.10;84.40;;;;;;7383006;19;20019;-77
2023/10/01 16:33:40;;;;;;;25.15;8.45;;;25.10;84.60;;;;;;7382811;19;20026;-78
2023/10/01 16:36:09;;;;;;;20.33;8.77;;;25.10;84.80;;;;;;7404506;19;20106;-78
2023/10/01 16:38:43;;;;;;;21.90;9.38;;;25.00;85.10;;;;;;7381524;19;20350;-78
2023/10/01 16:41:14;;;;;;;18.27;8.50;;;24.90;84.80;;;;;;7382356;19;20007;-77
2023/10/01 16:43:45;;;;;;;;;;;24.90;85.40;;;;;;7381043;19;20024;-78
2023/10/01 16:46:19;;;;;;;21.65;9.25;;;24.80;85.50;;;;;;7385703;19;19903;-79
2023/10/01 16:48:47;;;;;;;23.00;8.98;;;24.80;85.80;;;;;;7388934;19;20020;-78
2023/10/01 16:51:23;;;;;;;19.73;8.95;;;24.70;87.30;;;;;;7402829;19;20007;-78
2023/10/01 16:53:56;;;;;;;21.00;9.00;;;24.60;86.30;;;;;;7379070;19;20034;-78
2023/10/01 16:56:28;;;;;;;22.70;9.52;;;24.50;86.60;;;;;;7380824;19;20072;-77
2023/10/01 16:59:04;;;;;;;22.05;9.25;;;24.50;87.00;;;;;;7381927;19;20024;-78